Time;durP1;ratioP1;P1;durP2;ratioP2;P2;SDS_P1;SDS_P2;PMS_P1;PMS_P2;Temp;Humidity;BMP_temperature;BMP_pressure;BME280_temperature;BME280_humidity;BME280_pressure;Samples;Min_cycle;Max_cycle;Signal;HPM_P1;HPM_P2
2021/07/31 00:01:08;;;;;;;7.60;2.05;;;21.20;87.70;;;;;;11964624;28;20045;-67
2021/07/31 00:06:55;;;;;;;7.50;2.00;;;21.20;87.60;;;;;;11960318;28;20136;-68
2021/07/31 00:12:42;;;;;;;13.10;2.50;;;21.10;88.40;;;;;;11966288;28;20045;-68
2021/07/31 00:18:30;;;;;;;8.23;2.35;;;21.20;88.90;;;;;;11964973;28;20052;-68
2021/07/31 00:24:17;;;;;;;14.65;2.33;;;21.20;88.80;;;;;;11961479;28;20060;-67
2021/07/31 00:30:04;;;;;;;5.53;2.30;;;21.10;88.60;;;;;;11959843;28;20053;-67
2021/07/31 00:35:53;;;;;;;5.47;2.30;;;20.90;89.20;;;;;;11959166;28;20049;-67
2021/07/31 00:41:40;;;;;;;7.85;2.47;;;20.80;89.90;;;;;;11961561;28;20077;-68
2021/07/31 00:47:27;;;;;;;8.80;2.05;;;20.70;90.20;;;;;;11959445;28;20065;-68
2021/07/31 00:53:15;;;;;;;5.32;2.03;;;20.80;90.10;;;;;;11959777;28;20098;-68
2021/07/31 06:58:10;;;;;;;10.68;3.50;;;18.80;99.90;;;;;;12034947;27;20134;-68
2021/07/31 07:03:57;;;;;;;11.57;3.72;;;19.20;99.90;;;;;;12017334;28;20056;-68
2021/07/31 07:09:44;;;;;;;10.25;3.60;;;19.80;99.90;;;;;;11988747;28;20127;-68
2021/07/31 07:21:33;;;;;;;10.90;3.20;;;20.40;99.90;;;;;;11971815;28;20045;-68
2021/07/31 07:27:20;;;;;;;8.45;3.47;;;20.70;99.90;;;;;;11961835;28;20049;-68
2021/07/31 07:33:08;;;;;;;13.23;3.63;;;20.80;99.90;;;;;;11969688;28;20061;-67
2021/07/31 07:38:55;;;;;;;7.95;3.25;;;21.00;99.90;;;;;;12002436;28;20099;-68
2021/07/31 07:44:42;;;;;;;12.82;3.92;;;21.10;99.90;;;;;;12012338;28;20068;-67
2021/07/31 07:50:31;;;;;;;8.57;2.90;;;20.90;99.90;;;;;;12016721;28;20037;-67
2021/07/31 07:56:21;;;;;;;10.82;3.72;;;20.60;99.90;;;;;;12009703;28;20056;-67
2021/07/31 08:02:08;;;;;;;11.15;3.75;;;20.90;99.90;;;;;;12001626;28;20060;-67
2021/07/31 08:07:56;;;;;;;10.50;3.60;;;20.90;99.90;;;;;;11943689;28;20053;-67
2021/07/31 08:13:43;;;;;;;10.27;3.10;;;20.60;99.90;;;;;;11956574;28;20581;-67
2021/07/31 08:19:30;;;;;;;6.68;3.20;;;21.00;99.60;;;;;;11962433;28;20046;-66
2021/07/31 08:25:19;;;;;;;9.38;3.20;;;21.10;98.60;;;;;;11952626;28;20547;-66
2021/07/31 08:31:06;;;;;;;6.13;3.00;;;21.10;98.00;;;;;;11982249;28;20048;-66
2021/07/31 08:36:53;;;;;;;6.25;3.00;;;21.00;98.80;;;;;;11980899;28;20053;-67
2021/07/31 08:42:42;;;;;;;9.93;3.00;;;20.90;98.90;;;;;;11943044;28;20064;-66
2021/07/31 08:48:30;;;;;;;9.93;2.60;;;21.00;98.80;;;;;;11975049;28;20045;-66
2021/07/31 08:54:17;;;;;;;7.32;3.10;;;21.00;98.40;;;;;;11981959;28;20045;-66
2021/07/31 09:00:06;;;;;;;8.25;2.58;;;21.30;98.40;;;;;;11954752;28;20045;-67
2021/07/31 09:05:53;;;;;;;5.88;2.20;;;21.50;96.80;;;;;;11975389;28;20060;-66
2021/07/31 09:11:59;;;;;;;9.63;2.80;;;21.40;96.40;;;;;;11974976;28;20111;-66
2021/07/31 09:17:47;;;;;;;5.90;2.42;;;21.40;96.60;;;;;;11946402;28;20052;-67
2021/07/31 09:23:43;;;;;;;4.15;2.10;;;21.50;96.60;;;;;;11981235;28;20053;-67
2021/07/31 09:29:31;;;;;;;5.60;2.80;;;21.70;95.60;;;;;;11980427;28;20060;-68
2021/07/31 09:35:24;;;;;;;11.63;3.13;;;21.90;95.10;;;;;;11983512;28;20454;-67
2021/07/31 09:41:32;;;;;;;7.13;2.35;;;22.00;94.80;;;;;;11976658;28;20420;-68
2021/07/31 09:47:19;;;;;;;5.95;2.10;;;21.90;94.80;;;;;;11982310;28;20048;-69
2021/07/31 09:53:12;;;;;;;6.20;2.22;;;22.20;94.20;;;;;;11948399;28;20080;-69
2021/07/31 09:59:01;;;;;;;6.80;2.25;;;22.50;93.30;;;;;;11950553;28;20152;-68
2021/07/31 10:04:50;;;;;;;6.07;2.63;;;22.80;92.30;;;;;;11931441;28;20468;-68
2021/07/31 10:10:39;;;;;;;5.75;1.90;;;22.60;91.70;;;;;;11954775;28;20068;-69
2021/07/31 10:16:25;;;;;;;5.57;2.25;;;22.60;92.20;;;;;;11918527;28;20072;-68
2021/07/31 10:22:14;;;;;;;6.13;2.13;;;22.60;93.00;;;;;;11944801;28;20037;-67
2021/07/31 10:28:25;;;;;;;6.20;2.00;;;22.50;92.60;;;;;;11951079;28;20056;-68
2021/07/31 10:34:46;;;;;;;5.70;2.28;;;22.60;93.10;;;;;;11975195;28;20159;-68
2021/07/31 10:40:54;;;;;;;3.35;1.70;;;22.60;92.00;;;;;;11929143;28;20041;-69
2021/07/31 10:46:42;;;;;;;4.43;2.03;;;22.80;91.90;;;;;;11952237;28;20413;-69
2021/07/31 10:52:51;;;;;;;5.38;2.17;;;23.30;91.20;;;;;;11949996;28;20048;-69
2021/07/31 10:58:38;;;;;;;4.07;1.90;;;23.40;90.30;;;;;;11942242;28;20052;-68
2021/07/31 11:11:28;;;;;;;4.82;1.80;;;23.70;86.70;;;;;;11965537;28;20029;-69
2021/07/31 11:17:18;;;;;;;4.88;2.30;;;23.60;87.40;;;;;;11995712;28;20158;-70
2021/07/31 11:23:07;;;;;;;5.70;1.83;;;23.40;88.60;;;;;;11989019;28;20163;-70
2021/07/31 11:28:56;;;;;;;5.93;1.95;;;23.40;88.40;;;;;;12013105;28;20037;-69
2021/07/31 11:34:44;;;;;;;5.70;1.80;;;23.50;87.70;;;;;;12014729;28;20060;-69
2021/07/31 11:40:32;;;;;;;6.43;1.92;;;23.60;87.40;;;;;;12014040;28;20860;-69
2021/07/31 11:46:32;;;;;;;3.67;1.52;;;23.90;86.60;;;;;;11949851;28;20060;-68
2021/07/31 11:52:27;;;;;;;4.80;1.73;;;23.90;81.40;;;;;;11998028;28;20063;-67
2021/07/31 11:58:16;;;;;;;6.03;1.90;;;23.50;84.50;;;;;;11983962;28;20440;-67
2021/07/31 12:04:08;;;;;;;4.20;1.90;;;23.30;86.20;;;;;;11941671;28;20417;-68
2021/07/31 12:09:59;;;;;;;4.15;1.58;;;23.80;84.20;;;;;;11966906;28;22286;-67
2021/07/31 12:15:47;;;;;;;3.88;1.25;;;24.20;82.30;;;;;;11985188;28;20049;-68
2021/07/31 12:21:35;;;;;;;2.53;1.40;;;23.80;76.40;;;;;;11968910;28;20040;-67
2021/07/31 12:27:22;;;;;;;4.32;1.42;;;23.90;80.70;;;;;;11937905;28;20057;-63
2021/07/31 12:33:19;;;;;;;3.28;1.52;;;23.80;81.30;;;;;;11934956;28;20111;-62
2021/07/31 12:39:07;;;;;;;4.60;1.20;;;23.60;81.30;;;;;;11942754;28;20049;-62
2021/07/31 12:44:55;;;;;;;3.00;1.63;;;23.60;80.40;;;;;;11938806;28;20587;-62
2021/07/31 12:50:43;;;;;;;3.00;1.25;;;24.00;81.40;;;;;;11937368;28;20100;-64
2021/07/31 12:56:31;;;;;;;7.10;1.52;;;24.40;78.60;;;;;;11936984;28;20046;-63
2021/07/31 13:02:18;;;;;;;2.03;1.20;;;24.30;79.50;;;;;;11929737;28;20517;-63
2021/07/31 13:08:06;;;;;;;4.57;1.63;;;24.30;78.20;;;;;;11962324;28;20789;-64
2021/07/31 13:13:54;;;;;;;2.88;1.42;;;24.30;78.70;;;;;;11970917;28;20122;-64
2021/07/31 13:19:41;;;;;;;4.85;1.30;;;24.30;76.90;;;;;;11972178;28;20037;-63
2021/07/31 13:25:28;;;;;;;3.00;1.30;;;24.30;78.30;;;;;;12017172;28;20049;-63
2021/07/31 13:31:16;;;;;;;1.83;1.25;;;24.80;77.60;;;;;;11995604;28;20064;-64
2021/07/31 13:37:03;;;;;;;6.10;1.35;;;24.40;76.90;;;;;;11987939;28;20595;-63
2021/07/31 13:42:52;;;;;;;2.55;1.45;;;24.40;78.00;;;;;;11991691;28;20033;-63
2021/07/31 13:48:40;;;;;;;2.30;1.55;;;24.70;77.00;;;;;;12000766;28;20402;-63
2021/07/31 13:54:27;;;;;;;4.55;1.55;;;25.20;77.90;;;;;;11980748;28;20043;-63
2021/07/31 14:00:15;;;;;;;2.00;1.42;;;25.60;75.70;;;;;;12015441;28;20059;-63
2021/07/31 14:06:10;;;;;;;1.63;1.45;;;25.60;74.70;;;;;;12015644;28;20056;-62
2021/07/31 14:11:57;;;;;;;1.42;1.08;;;25.60;73.50;;;;;;12015614;28;20173;-62
2021/07/31 14:17:44;;;;;;;6.18;1.52;;;25.60;74.20;;;;;;12007197;28;20049;-62
2021/07/31 14:23:32;;;;;;;3.05;1.60;;;25.90;73.60;;;;;;11998455;28;20041;-62
2021/07/31 14:29:19;;;;;;;3.35;1.50;;;26.20;72.40;;;;;;11988486;28;20144;-62
2021/07/31 14:35:10;;;;;;;3.53;1.65;;;26.40;72.40;;;;;;11989584;28;20049;-62
2021/07/31 14:40:58;;;;;;;2.35;1.52;;;26.00;71.90;;;;;;11989049;28;20136;-63
2021/07/31 14:46:45;;;;;;;3.25;1.40;;;26.20;72.50;;;;;;11966897;28;20856;-63
2021/07/31 14:52:32;;;;;;;4.03;1.77;;;26.30;73.10;;;;;;11953359;28;20424;-63
2021/07/31 14:58:20;;;;;;;2.97;1.60;;;26.10;70.20;;;;;;11931422;28;20061;-64
2021/07/31 15:04:07;;;;;;;4.00;1.40;;;26.20;71.60;;;;;;11929904;28;20045;-63
2021/07/31 15:09:54;;;;;;;5.20;1.58;;;26.20;70.50;;;;;;11948256;28;20045;-63
2021/07/31 15:15:42;;;;;;;2.83;1.50;;;26.60;70.20;;;;;;11958314;28;20076;-63
2021/07/31 15:21:29;;;;;;;5.00;1.30;;;26.20;70.90;;;;;;11972921;28;20045;-63
2021/07/31 15:27:16;;;;;;;1.55;1.25;;;26.40;70.20;;;;;;11936471;28;20269;-63
2021/07/31 15:33:04;;;;;;;3.30;1.40;;;26.10;68.40;;;;;;11941469;28;20429;-63
2021/07/31 15:38:51;;;;;;;3.50;1.30;;;25.80;69.70;;;;;;11949500;28;20444;-64
2021/07/31 15:44:38;;;;;;;2.78;1.23;;;25.70;69.90;;;;;;11982811;28;20143;-63
2021/07/31 15:50:26;;;;;;;2.80;1.48;;;25.50;71.00;;;;;;11941139;28;20521;-64
2021/07/31 15:56:13;;;;;;;2.53;1.20;;;25.10;71.40;;;;;;11939364;28;20050;-64
2021/07/31 16:02:01;;;;;;;2.20;1.08;;;25.00;72.30;;;;;;11926166;28;20061;-64
2021/07/31 16:07:49;;;;;;;1.98;1.20;;;24.80;73.40;;;;;;11970736;28;20056;-64
2021/07/31 16:13:37;;;;;;;6.25;1.50;;;24.60;73.70;;;;;;12022052;28;20520;-64
2021/07/31 16:19:24;;;;;;;7.32;1.42;;;24.90;74.10;;;;;;12020030;28;20086;-62
2021/07/31 16:25:12;;;;;;;1.75;1.05;;;25.30;74.00;;;;;;11998102;28;20172;-63
2021/07/31 16:30:59;;;;;;;2.58;1.00;;;25.70;73.30;;;;;;12015182;28;20186;-64
2021/07/31 16:36:46;;;;;;;3.78;1.20;;;26.00;71.20;;;;;;12018671;28;20053;-64
2021/07/31 16:42:34;;;;;;;3.15;1.48;;;25.20;72.20;;;;;;12019297;28;20418;-63
2021/07/31 16:48:21;;;;;;;4.20;1.02;;;24.70;74.00;;;;;;12018880;28;20049;-62
2021/07/31 16:54:08;;;;;;;5.07;1.40;;;24.10;75.40;;;;;;11987358;28;20048;-63
2021/07/31 16:59:56;;;;;;;4.75;1.70;;;24.10;76.40;;;;;;11973661;28;20064;-63
2021/07/31 17:05:44;;;;;;;4.57;1.45;;;24.20;77.30;;;;;;11936592;28;20045;-62
2021/07/31 17:11:31;;;;;;;11.50;1.70;;;24.40;77.70;;;;;;11938830;28;20049;-62
2021/07/31 17:17:19;;;;;;;3.78;1.50;;;24.40;77.70;;;;;;11956894;28;20077;-62
2021/07/31 17:23:06;;;;;;;4.90;1.73;;;24.30;79.00;;;;;;11934783;28;20065;-63
2021/07/31 17:28:53;;;;;;;2.95;1.50;;;24.40;78.30;;;;;;11959587;28;20048;-62
2021/07/31 17:34:41;;;;;;;5.57;1.52;;;24.50;78.40;;;;;;11980885;28;20049;-63
2021/07/31 17:40:29;;;;;;;10.65;1.80;;;24.60;79.00;;;;;;11932191;28;20421;-63
2021/07/31 17:46:15;;;;;;;5.10;1.98;;;24.80;82.70;;;;;;11982655;28;20045;-63
2021/07/31 17:52:04;;;;;;;4.40;1.88;;;24.80;86.00;;;;;;11959197;28;20049;-63
2021/07/31 17:57:51;;;;;;;5.50;1.80;;;24.60;86.90;;;;;;11938776;28;20045;-63
2021/07/31 18:03:38;;;;;;;4.07;2.00;;;24.40;90.00;;;;;;11933092;28;20156;-63
2021/07/31 18:09:27;;;;;;;4.10;1.85;;;24.20;91.00;;;;;;11950416;28;20555;-63
2021/07/31 18:15:14;;;;;;;2.70;1.52;;;23.90;90.90;;;;;;11976170;28;20050;-63
2021/07/31 18:21:00;;;;;;;2.30;1.63;;;23.90;88.20;;;;;;11922142;28;20052;-63
2021/07/31 18:26:49;;;;;;;14.80;2.50;;;24.10;86.10;;;;;;11982401;28;20068;-63
2021/07/31 18:32:36;;;;;;;9.52;2.17;;;24.10;87.60;;;;;;11983203;28;20045;-62
2021/07/31 18:38:23;;;;;;;5.53;2.50;;;24.00;85.20;;;;;;11951475;28;20065;-63
2021/07/31 18:44:11;;;;;;;5.20;2.35;;;23.80;85.50;;;;;;11957290;28;20429;-62
2021/07/31 18:49:58;;;;;;;4.97;2.40;;;23.80;86.60;;;;;;11959514;28;21457;-63
2021/07/31 18:55:45;;;;;;;4.72;1.85;;;23.70;87.00;;;;;;11978579;28;20171;-63
2021/07/31 19:01:35;;;;;;;11.20;2.35;;;23.60;88.80;;;;;;11924671;28;20068;-62
2021/07/31 19:07:22;;;;;;;4.88;2.03;;;23.50;88.80;;;;;;11972076;28;20045;-62
2021/07/31 19:13:33;;;;;;;5.00;2.00;;;23.50;89.70;;;;;;11969010;28;20045;-63
2021/07/31 19:19:44;;;;;;;5.90;2.00;;;23.30;90.00;;;;;;11991370;28;20414;-63
2021/07/31 19:25:31;;;;;;;5.00;2.15;;;22.90;91.50;;;;;;11966315;28;20045;-61
2021/07/31 19:31:18;;;;;;;6.82;2.08;;;22.00;94.00;;;;;;12011734;28;20052;-61
2021/07/31 19:37:07;;;;;;;4.25;2.38;;;21.80;96.20;;;;;;12013789;28;20045;-61
2021/07/31 19:42:54;;;;;;;4.80;2.50;;;21.90;97.30;;;;;;11971175;28;20065;-62
2021/07/31 19:48:41;;;;;;;6.07;2.58;;;21.90;97.90;;;;;;12006519;28;20041;-61
2021/07/31 19:54:29;;;;;;;5.72;3.00;;;22.00;98.90;;;;;;11968176;28;20041;-61
2021/07/31 20:00:17;;;;;;;7.28;2.40;;;22.00;99.60;;;;;;11962107;28;20432;-61
2021/07/31 20:06:04;;;;;;;4.55;2.38;;;22.00;99.30;;;;;;11952962;28;20049;-62
2021/07/31 20:11:52;;;;;;;3.78;2.17;;;21.90;98.80;;;;;;11952194;28;20057;-62
2021/07/31 20:17:40;;;;;;;7.47;2.78;;;21.90;99.90;;;;;;11947484;28;20053;-61
2021/07/31 20:23:31;;;;;;;4.53;2.58;;;21.90;99.80;;;;;;11954205;28;20056;-62
2021/07/31 20:29:20;;;;;;;6.85;2.72;;;21.80;99.70;;;;;;11942750;28;20069;-61
2021/07/31 20:35:08;;;;;;;4.80;2.28;;;21.70;99.90;;;;;;11981799;28;20049;-61
2021/07/31 20:40:55;;;;;;;5.82;2.80;;;21.60;99.90;;;;;;11934753;28;20046;-63
2021/07/31 20:46:43;;;;;;;7.57;2.53;;;21.60;99.30;;;;;;11934634;28;20050;-62
2021/07/31 20:52:30;;;;;;;6.50;3.15;;;21.50;99.90;;;;;;11948620;28;20071;-62
2021/07/31 20:58:17;;;;;;;6.30;2.70;;;21.40;99.80;;;;;;11979555;28;20045;-62
2021/07/31 21:04:06;;;;;;;5.13;2.67;;;21.30;99.90;;;;;;11981122;28;20056;-61
2021/07/31 21:09:53;;;;;;;6.40;2.67;;;21.20;99.90;;;;;;11957447;28;20052;-63
2021/07/31 21:15:40;;;;;;;7.63;2.95;;;21.10;99.80;;;;;;11945708;28;20093;-63
2021/07/31 21:21:28;;;;;;;9.40;2.83;;;21.10;99.90;;;;;;11960975;28;20053;-62
2021/07/31 21:27:15;;;;;;;6.80;2.78;;;21.10;99.90;;;;;;11961575;28;20053;-64
2021/07/31 21:33:03;;;;;;;6.50;2.72;;;21.00;99.90;;;;;;11888462;28;20057;-64
2021/07/31 21:38:51;;;;;;;4.32;2.50;;;21.00;99.90;;;;;;11935741;28;20050;-62
2021/07/31 21:44:38;;;;;;;4.03;3.00;;;20.90;99.90;;;;;;11967518;28;20049;-62
2021/07/31 21:50:25;;;;;;;5.80;2.78;;;20.90;99.90;;;;;;11981430;28;20049;-62
2021/07/31 21:56:14;;;;;;;6.45;3.08;;;20.90;99.90;;;;;;11951571;28;20057;-62
2021/07/31 22:02:01;;;;;;;7.90;2.63;;;21.00;99.90;;;;;;11930302;28;20053;-62
2021/07/31 22:07:48;;;;;;;4.95;2.83;;;21.00;99.90;;;;;;11932322;28;20053;-62
2021/07/31 22:13:36;;;;;;;8.98;2.80;;;20.90;99.90;;;;;;11982612;28;20049;-63
2021/07/31 22:19:23;;;;;;;4.25;3.03;;;20.90;99.90;;;;;;11984709;28;20106;-62
2021/07/31 22:25:10;;;;;;;11.68;2.65;;;20.90;99.90;;;;;;11958453;28;20044;-62
2021/07/31 22:30:59;;;;;;;5.00;2.67;;;20.90;99.90;;;;;;11980632;28;20539;-62
2021/07/31 22:36:46;;;;;;;10.52;3.78;;;21.00;99.90;;;;;;11941682;28;20057;-62
2021/07/31 22:42:33;;;;;;;8.60;3.10;;;21.00;99.90;;;;;;11953424;28;20045;-62
2021/07/31 22:48:21;;;;;;;7.13;2.92;;;21.00;99.90;;;;;;11957029;28;20048;-62
2021/07/31 22:54:08;;;;;;;10.85;3.20;;;21.00;99.90;;;;;;11933425;28;20042;-61
2021/07/31 22:59:56;;;;;;;4.95;2.72;;;21.00;99.90;;;;;;11941603;28;20041;-60
2021/07/31 23:06:18;;;;;;;8.75;3.63;;;20.90;99.90;;;;;;11954207;28;20049;-61
2021/07/31 23:12:07;;;;;;;11.50;3.53;;;21.00;99.90;;;;;;11942037;28;20063;-62
2021/07/31 23:17:54;;;;;;;10.25;3.35;;;21.00;99.90;;;;;;11939073;28;20135;-62
2021/07/31 23:23:41;;;;;;;5.25;3.38;;;20.90;99.90;;;;;;11973214;28;20049;-61
2021/07/31 23:29:30;;;;;;;9.45;3.65;;;20.90;99.90;;;;;;11955266;28;20041;-62
2021/07/31 23:35:20;;;;;;;6.10;4.13;;;20.90;99.90;;;;;;11968450;28;20528;-62
2021/07/31 23:41:07;;;;;;;12.85;4.70;;;20.70;99.90;;;;;;11983110;28;20053;-61
2021/07/31 23:46:56;;;;;;;7.72;4.90;;;20.50;99.90;;;;;;11988414;28;20918;-61
2021/07/31 23:52:42;;;;;;;8.93;4.70;;;20.40;99.90;;;;;;11987411;28;20060;-62
